Kaltag, AK

9:27 AM AKDT on July 06, 2015 (GMT -0800)
Kaltag | | Change Station
CLOSE
Current Station
Airport
Location: Kaltag,
Elevation: 200 ft
Nearby Weather Stations
Active Advisory: Dense Smoke Advisory Active Notice: Record Report

Elev 200 ft 64.32 °N, 158.74 °W | Updated 34 minutes ago

Haze
Haze
66 °F
Feels Like 66 °F
N
0
Wind Variable Wind from North

Today
High -- | Low -- °F
--% Chance of Precip.
Yesterday
High -- | Low -- °F
Precip. -- in
4:19 AM 0:57 AM
Waning Gibbous, 74% visible
Pressure 29.94 in
Visibility 0.8 miles
Clouds
Dew Point 57 °F
Humidity 73%
Rainfall 0.00 in
Snow Depth Not available.
UV Not available.
Pollen Not available.
Air Quality Not available.
Flu Activity Not available.
METAR PAKV 061653Z AUTO 00000KT 3/4SM HZ VV012 19/14 A2994 RMK AO2 SLP138 T01890139 TSNO PNO $

More Conditions Fewer Conditions

Pressure 29.94 in
Visibility 0.8 miles
Clouds
Dew Point 57 °F
Humidity 73%
Rainfall 0.00 in
Snow Depth Not available.
UV Not available.
Pollen Not available.
Air Quality Not available.
Flu Activity Not available.
METAR PAKV 061653Z AUTO 00000KT 3/4SM HZ VV012 19/14 A2994 RMK AO2 SLP138 T01890139 TSNO PNO $

More Conditions Fewer Conditions

10-Day Weather Forecast

×

Almanac

Astronomy

Jul. 06, 2015 Rise Set
Actual Time
Civil Twilight
Nautical Twilight
Astronomical Twilight
Moon
Length of Visible Light
Length of Day
Tomorrow will be .
, % of the Moon is Illuminated

Today's Extremes

State Highs State Lows

Community

WunderPhotos

Upload Photos

1,835,604 photos uploaded!

WunderBlogs® & News

Nearby

Air Quality

  Air Quality AQ Index Pollutant
Not available.

Snow Depth

Station Depth Elevation

Earthquake Activity

City Distance Mag. Time & Date
Minimum magnitude displayed is 2.5.

Coastal Water Temperatures

Place Temperature

Stations

Nearby Weather Stations

Station Location Temp. Windchill Dew Point Humidity Wind Precip. Elev Updated Type
                   
Dense Smoke Advisory
Statement as of 2:44 AM AKDT on July 06, 2015

... Dense smoke advisory in effect until midnight akdt tonight...

The National Weather Service in Fairbanks has issued a dense
smoke advisory... which is in effect until midnight akdt tonight.

* Visibility... less than one half mile at times.

* Timing... conditions improving later today when winds become
southerly as a weather front moves north across the area.

Precautionary/preparedness actions...

A dense smoke advisory means visibilities are limited to one mile
or less in wildfire smoke. If outdoors... prolonged physical
exertion should be reduced or stopped.